createdAt,value
2022-08-16T00:02:33.545Z,100383.63
2022-08-16T00:05:01.953Z,100380.66
2022-08-16T00:07:31.688Z,100377.94
2022-08-16T00:10:01.751Z,100380.91
2022-08-16T00:12:31.250Z,100383.53
2022-08-16T00:15:02.338Z,100382.41
2022-08-16T00:17:30.196Z,100385.44
2022-08-16T00:20:21.080Z,100380.56
2022-08-16T00:22:49.823Z,100388.72
2022-08-16T00:26:13.538Z,100393.91
2022-08-16T00:28:12.425Z,100395.31
2022-08-16T00:30:40.541Z,100391.06
2022-08-16T00:33:10.015Z,100400.69
2022-08-16T00:35:39.577Z,100394.94
2022-08-16T00:38:41.514Z,100406.41
2022-08-16T00:40:59.371Z,100405.94
2022-08-16T00:43:42.901Z,100417.03
2022-08-16T00:46:33.042Z,100416.19
2022-08-16T00:49:05.498Z,100421.25
2022-08-16T00:51:33.612Z,100419.25
2022-08-16T00:54:01.872Z,100422.84
2022-08-16T00:56:56.981Z,100427.28
2022-08-16T00:59:27.438Z,100428.47
2022-08-16T01:01:56.429Z,100426.97
2022-08-16T01:04:30.841Z,100428.66
2022-08-16T01:07:02.434Z,100432.41
2022-08-16T01:09:33.483Z,100435.91
2022-08-16T01:12:08.381Z,100444.22
2022-08-16T01:14:43.505Z,100441.50
2022-08-16T01:17:13.878Z,100441.69
2022-08-16T01:19:45.233Z,100432.72
2022-08-16T01:22:48.192Z,100432.13
2022-08-16T01:25:13.856Z,100433.25
2022-08-16T01:27:47.076Z,100430.22
2022-08-16T01:30:20.381Z,100438.94
2022-08-16T01:33:02.137Z,100435.53
2022-08-16T01:35:42.258Z,100431.16
2022-08-16T01:38:20.079Z,100435.72
2022-08-16T01:40:50.631Z,100437.97
2022-08-16T01:43:20.938Z,100438.66
2022-08-16T01:45:57.919Z,100436.00
2022-08-16T01:48:30.517Z,100442.16
2022-08-16T01:51:08.811Z,100449.38
2022-08-16T01:53:44.338Z,100449.94
2022-08-16T01:56:23.446Z,100451.56
2022-08-16T01:58:53.220Z,100464.97
2022-08-16T02:01:21.355Z,100463.31
2022-08-16T02:03:50.304Z,100460.44
2022-08-16T02:06:34.445Z,100457.72
2022-08-16T02:09:11.733Z,100457.06
2022-08-16T02:14:18.673Z,100445.88
2022-08-16T02:16:49.760Z,100445.56
2022-08-16T02:19:19.892Z,100460.34
2022-08-16T02:22:08.790Z,100463.25
2022-08-16T02:24:46.019Z,100464.44
2022-08-16T02:27:16.090Z,100464.34
2022-08-16T02:29:45.116Z,100465.31
2022-08-16T02:32:51.180Z,100463.44
2022-08-16T02:35:05.611Z,100457.84
2022-08-16T02:37:51.646Z,100456.38
2022-08-16T02:40:23.048Z,100465.38
2022-08-16T02:42:53.895Z,100461.31
2022-08-16T02:45:25.018Z,100458.91
2022-08-16T02:48:01.560Z,100459.75
2022-08-16T02:50:54.492Z,100454.50
2022-08-16T02:53:32.936Z,100454.50
2022-08-16T02:56:00.858Z,100454.13
2022-08-16T02:58:32.568Z,100454.81
2022-08-16T03:01:01.434Z,100443.44
2022-08-16T03:04:30.199Z,100437.34
2022-08-16T03:06:39.634Z,100438.84
2022-08-16T03:09:13.756Z,100438.00
2022-08-16T03:11:43.393Z,100457.84
2022-08-16T03:14:13.651Z,100457.84
2022-08-16T03:16:59.935Z,100448.31
2022-08-16T03:19:46.940Z,100447.50
2022-08-16T03:22:19.156Z,100450.38
2022-08-16T03:24:58.677Z,100450.56
2022-08-16T03:27:30.722Z,100447.16
2022-08-16T03:30:17.517Z,100441.44
2022-08-16T03:32:47.162Z,100444.88
2022-08-16T03:35:17.597Z,100444.19
2022-08-16T03:38:01.911Z,100452.72
2022-08-16T03:40:33.228Z,100444.38
2022-08-16T03:43:20.259Z,100451.69
2022-08-16T03:45:52.772Z,100446.44
2022-08-16T03:48:36.689Z,100448.97
2022-08-16T03:51:09.997Z,100442.34
2022-08-16T03:53:41.676Z,100444.03
2022-08-16T03:56:19.511Z,100452.97
2022-08-16T03:58:50.874Z,100445.50
2022-08-16T04:01:20.948Z,100456.38
2022-08-16T04:03:50.232Z,100452.59
2022-08-16T04:06:18.602Z,100455.47
2022-08-16T04:08:48.136Z,100448.47
2022-08-16T04:11:17.114Z,100457.13
2022-08-16T04:14:01.515Z,100466.63
2022-08-16T04:16:34.910Z,100463.91
2022-08-16T04:19:04.588Z,100476.28
2022-08-16T04:21:34.651Z,100465.06
2022-08-16T04:24:07.769Z,100472.66
2022-08-16T04:26:36.985Z,100466.38
2022-08-16T04:29:16.747Z,100471.16
2022-08-16T04:31:56.645Z,100462.81
2022-08-16T04:34:29.166Z,100462.44
2022-08-16T04:36:58.198Z,100469.41
2022-08-16T04:39:44.990Z,100468.66
2022-08-16T04:42:16.227Z,100471.75
2022-08-16T04:44:53.913Z,100473.28
2022-08-16T04:47:33.114Z,100480.78
2022-08-16T04:50:02.128Z,100481.78
2022-08-16T04:52:35.843Z,100471.22
2022-08-16T04:55:07.308Z,100480.06
2022-08-16T04:57:36.903Z,100478.16
2022-08-16T05:00:32.117Z,100479.88
2022-08-16T05:02:58.808Z,100484.81
2022-08-16T05:05:30.620Z,100499.81
2022-08-16T05:08:29.216Z,100507.31
2022-08-16T05:10:51.488Z,100506.88
2022-08-16T05:13:19.713Z,100505.34
2022-08-16T05:15:49.788Z,100514.38
2022-08-16T05:18:26.875Z,100505.31
2022-08-16T05:21:09.425Z,100506.84
2022-08-16T05:23:37.770Z,100507.66
2022-08-16T05:26:06.007Z,100509.16
2022-08-16T05:28:47.782Z,100507.22
2022-08-16T05:31:24.004Z,100521.69
2022-08-16T05:33:59.959Z,100517.00
2022-08-16T05:36:33.893Z,100521.31
2022-08-16T05:39:04.361Z,100527.41
2022-08-16T05:41:32.291Z,100533.34
2022-08-16T05:44:05.464Z,100534.94
2022-08-16T05:46:49.072Z,100534.66
2022-08-16T05:49:22.252Z,100538.78
2022-08-16T05:51:51.363Z,100549.59
2022-08-16T05:54:25.078Z,100556.38
2022-08-16T05:56:54.221Z,100557.41
2022-08-16T05:59:24.265Z,100560.13
2022-08-16T06:01:55.149Z,100564.84
2022-08-16T06:04:35.481Z,100562.41
2022-08-16T06:07:09.496Z,100568.72
2022-08-16T06:09:52.592Z,100557.09
2022-08-16T06:12:27.920Z,100561.72
2022-08-16T06:14:59.823Z,100563.91
2022-08-16T06:17:41.777Z,100564.16
2022-08-16T06:20:18.386Z,100560.59
2022-08-16T06:22:58.727Z,100564.13
2022-08-16T06:25:36.474Z,100566.28
2022-08-16T06:28:09.891Z,100568.78
2022-08-16T06:30:43.870Z,100567.97
2022-08-16T06:33:22.352Z,100577.13
2022-08-16T06:35:54.726Z,100576.19
2022-08-16T06:38:32.474Z,100576.59
2022-08-16T06:41:03.759Z,100583.16
2022-08-16T06:43:31.913Z,100576.25
2022-08-16T06:46:00.685Z,100586.31
2022-08-16T06:48:33.773Z,100583.06
2022-08-16T06:51:04.221Z,100582.31
2022-08-16T06:53:35.519Z,100583.31
2022-08-16T06:56:14.570Z,100589.06
2022-08-16T06:58:52.487Z,100587.28
2022-08-16T07:01:43.222Z,100588.88
2022-08-16T07:04:11.872Z,100582.13
2022-08-16T07:06:43.344Z,100588.88
2022-08-16T07:09:12.626Z,100585.75
2022-08-16T07:11:47.359Z,100584.09
2022-08-16T07:14:24.724Z,100584.06
2022-08-16T07:16:55.477Z,100585.81
2022-08-16T07:20:01.926Z,100588.38
2022-08-16T07:22:37.587Z,100584.47
2022-08-16T07:25:03.669Z,100585.56
2022-08-16T07:27:37.546Z,100581.56
2022-08-16T07:30:45.590Z,100586.41
2022-08-16T07:32:56.933Z,100593.25
2022-08-16T07:35:25.429Z,100590.97
2022-08-16T07:37:54.779Z,100593.94
2022-08-16T07:40:49.080Z,100597.59
2022-08-16T07:43:11.649Z,100604.47
2022-08-16T07:45:39.720Z,100602.84
2022-08-16T07:48:12.459Z,100604.09
2022-08-16T07:50:55.808Z,100597.91
2022-08-16T07:53:29.060Z,100607.81
2022-08-16T07:55:58.257Z,100605.38
2022-08-16T07:58:34.412Z,100604.44
2022-08-16T08:01:10.600Z,100607.78
2022-08-16T08:03:47.680Z,100608.06
2022-08-16T08:06:17.323Z,100606.38
2022-08-16T08:08:51.503Z,100616.69
2022-08-16T08:11:24.054Z,100617.22
2022-08-16T08:14:03.190Z,100611.94
2022-08-16T08:16:32.237Z,100617.69
2022-08-16T08:19:02.751Z,100617.66
2022-08-16T08:21:59.746Z,100612.25
2022-08-16T08:24:22.180Z,100624.47
2022-08-16T08:27:00.290Z,100627.44
2022-08-16T08:29:37.309Z,100629.06
2022-08-16T08:32:58.178Z,100633.78
2022-08-16T08:34:56.312Z,100632.13
2022-08-16T08:37:54.223Z,100633.97
2022-08-16T08:40:24.762Z,100643.34
2022-08-16T08:43:00.295Z,100650.13
2022-08-16T08:45:53.343Z,100648.97
2022-08-16T08:48:33.455Z,100641.75
2022-08-16T08:51:04.524Z,100643.19
2022-08-16T08:53:33.374Z,100646.72
2022-08-16T08:56:23.039Z,100644.25
2022-08-16T08:58:53.977Z,100647.00
2022-08-16T09:01:31.852Z,100656.81
2022-08-16T09:04:05.910Z,100648.84
2022-08-16T09:06:35.022Z,100656.88
2022-08-16T09:09:03.556Z,100658.25
2022-08-16T09:11:41.085Z,100658.78
2022-08-16T09:14:23.892Z,100652.72
2022-08-16T09:17:01.148Z,100647.44
2022-08-16T09:19:33.922Z,100652.50
2022-08-16T09:22:02.446Z,100653.75
2022-08-16T09:24:46.615Z,100651.16
2022-08-16T09:27:20.176Z,100650.94
2022-08-16T09:29:48.965Z,100648.41
2022-08-16T09:32:30.474Z,100647.81
2022-08-16T09:34:59.691Z,100653.63
2022-08-16T09:37:29.586Z,100645.84
2022-08-16T09:39:59.541Z,100656.22
2022-08-16T09:42:30.446Z,100649.25
2022-08-16T09:45:18.798Z,100661.00
2022-08-16T09:47:56.173Z,100664.75
2022-08-16T09:50:33.166Z,100660.16
2022-08-16T09:53:15.270Z,100654.97
2022-08-16T09:55:49.326Z,100657.78
2022-08-16T09:58:41.368Z,100661.59
2022-08-16T10:01:11.281Z,100670.03
2022-08-16T10:04:02.202Z,100666.22
2022-08-16T10:06:40.841Z,100667.25
2022-08-16T10:09:16.460Z,100668.16
2022-08-16T10:12:11.724Z,100668.56
2022-08-16T10:14:51.496Z,100665.44
2022-08-16T10:17:22.676Z,100660.50
2022-08-16T10:19:56.193Z,100667.34
2022-08-16T10:22:24.565Z,100665.22
2022-08-16T10:24:59.774Z,100670.50
2022-08-16T10:27:30.088Z,100657.59
2022-08-16T10:30:24.914Z,100662.00
2022-08-16T10:32:54.364Z,100668.25
2022-08-16T10:35:22.859Z,100662.56
2022-08-16T10:37:52.259Z,100663.66
2022-08-16T10:40:29.279Z,100661.41
2022-08-16T10:43:00.079Z,100663.88
2022-08-16T10:45:36.894Z,100668.66
2022-08-16T10:48:27.277Z,100663.78
2022-08-16T10:50:58.493Z,100670.25
2022-08-16T10:53:33.228Z,100670.50
2022-08-16T10:56:02.938Z,100669.50
2022-08-16T10:58:34.669Z,100672.03
2022-08-16T11:03:57.298Z,100664.94
2022-08-16T11:06:28.729Z,100667.38
2022-08-16T11:14:36.266Z,100669.50
2022-08-16T11:17:11.404Z,100676.91
2022-08-16T11:22:42.153Z,100674.78
2022-08-16T11:28:08.085Z,100685.84
2022-08-16T11:30:38.618Z,100684.81
2022-08-16T11:33:09.145Z,100690.63
2022-08-16T11:35:43.804Z,100684.69
2022-08-16T11:38:47.511Z,100697.50
2022-08-16T11:41:03.536Z,100677.34
2022-08-16T11:43:35.304Z,100691.34
2022-08-16T11:46:43.537Z,100688.28
2022-08-16T11:48:55.766Z,100689.88
2022-08-16T11:51:23.988Z,100691.78
2022-08-16T11:53:52.660Z,100696.34
2022-08-16T11:56:40.077Z,100703.38
2022-08-16T11:59:09.997Z,100702.47
2022-08-16T12:01:55.379Z,100707.78
2022-08-16T12:04:29.550Z,100709.31
2022-08-16T12:06:58.213Z,100718.28
2022-08-16T12:09:29.609Z,100726.13
2022-08-16T12:12:03.100Z,100720.44
2022-08-16T12:14:35.322Z,100711.97
2022-08-16T12:17:08.448Z,100723.59
2022-08-16T12:19:38.302Z,100714.72
2022-08-16T12:22:19.075Z,100719.34
2022-08-16T12:24:51.885Z,100720.56
2022-08-16T12:27:23.096Z,100716.53
2022-08-16T12:29:52.684Z,100730.22
2022-08-16T12:32:37.733Z,100727.53
2022-08-16T12:35:13.072Z,100732.56
2022-08-16T12:37:42.394Z,100732.06
2022-08-16T12:40:24.191Z,100734.69
2022-08-16T12:42:58.985Z,100721.78
2022-08-16T12:45:29.467Z,100720.63
2022-08-16T12:48:33.758Z,100711.13
2022-08-16T12:51:13.366Z,100708.59
2022-08-16T12:53:46.285Z,100701.34
2022-08-16T12:56:15.125Z,100705.25
2022-08-16T12:58:50.555Z,100703.16
2022-08-16T13:01:22.605Z,100709.91
2022-08-16T13:04:11.633Z,100705.22
2022-08-16T13:06:43.099Z,100709.34
2022-08-16T13:09:23.726Z,100706.41
2022-08-16T13:12:03.510Z,100710.59
2022-08-16T13:14:34.746Z,100707.16
2022-08-16T13:17:06.576Z,100710.81
2022-08-16T13:20:05.601Z,100706.94
2022-08-16T13:22:26.205Z,100711.25
2022-08-16T13:24:54.602Z,100714.94
2022-08-16T13:28:10.804Z,100706.66
2022-08-16T13:30:36.121Z,100711.94
2022-08-16T13:33:01.312Z,100713.06
2022-08-16T13:35:42.899Z,100715.00
2022-08-16T13:38:24.191Z,100714.56
2022-08-16T13:40:56.039Z,100709.84
2022-08-16T13:43:26.659Z,100711.34
2022-08-16T13:45:55.999Z,100717.81
2022-08-16T13:48:25.191Z,100711.84
2022-08-16T13:50:54.933Z,100713.53
2022-08-16T13:53:26.641Z,100708.38
2022-08-16T13:55:57.870Z,100710.28
2022-08-16T13:58:37.560Z,100707.19
2022-08-16T14:01:17.209Z,100710.75
2022-08-16T14:03:46.005Z,100711.00
2022-08-16T14:06:15.082Z,100713.88
2022-08-16T14:08:59.289Z,100711.25
2022-08-16T14:11:34.374Z,100715.16
2022-08-16T14:14:05.513Z,100715.91
2022-08-16T14:16:35.326Z,100710.81
2022-08-16T14:19:06.131Z,100704.41
2022-08-16T14:21:35.204Z,100704.31
2022-08-16T14:24:12.876Z,100706.16
2022-08-16T14:26:54.778Z,100700.00
2022-08-16T14:29:28.443Z,100694.63
2022-08-16T14:32:00.217Z,100687.44
2022-08-16T14:34:29.814Z,100703.88
2022-08-16T14:36:58.112Z,100703.91
2022-08-16T14:39:29.658Z,100696.28
2022-08-16T14:42:05.240Z,100705.25
2022-08-16T14:44:33.831Z,100694.56
2022-08-16T14:47:01.917Z,100692.34
2022-08-16T14:49:33.634Z,100691.44
2022-08-16T14:52:02.999Z,100695.00
2022-08-16T14:54:33.749Z,100695.03
2022-08-16T14:57:01.726Z,100696.38
2022-08-16T14:59:32.879Z,100697.22
2022-08-16T15:02:12.396Z,100703.06
2022-08-16T15:04:55.621Z,100693.47
2022-08-16T15:07:23.974Z,100701.13
2022-08-16T15:10:01.670Z,100694.44
2022-08-16T15:12:33.555Z,100698.44
2022-08-16T15:15:04.470Z,100694.50
2022-08-16T15:17:42.240Z,100701.72
2022-08-16T15:20:26.269Z,100698.34
2022-08-16T15:22:55.087Z,100691.31
2022-08-16T15:25:29.559Z,100696.72
2022-08-16T15:27:58.862Z,100690.34
2022-08-16T15:30:57.363Z,100698.78
2022-08-16T15:33:19.693Z,100698.78
2022-08-16T15:35:50.287Z,100695.94
2022-08-16T15:38:56.865Z,100704.25
2022-08-16T15:41:07.609Z,100701.88
2022-08-16T15:43:40.029Z,100702.28
2022-08-16T15:46:35.490Z,100697.88
2022-08-16T15:49:13.324Z,100707.22
2022-08-16T15:51:44.707Z,100698.97
2022-08-16T15:54:29.297Z,100706.59
2022-08-16T15:57:10.993Z,100701.97
2022-08-16T15:59:49.149Z,100707.75
2022-08-16T16:02:29.674Z,100703.22
2022-08-16T16:05:01.771Z,100707.44
2022-08-16T16:07:31.050Z,100708.06
2022-08-16T16:09:59.669Z,100717.16
2022-08-16T16:12:54.494Z,100710.59
2022-08-16T16:15:22.629Z,100709.91
2022-08-16T16:17:52.340Z,100706.16
2022-08-16T16:20:27.210Z,100712.53
2022-08-16T16:22:59.012Z,100709.59
2022-08-16T16:25:29.345Z,100710.28
2022-08-16T16:28:00.694Z,100705.81
2022-08-16T16:30:33.114Z,100702.91
2022-08-16T16:33:15.591Z,100712.72
2022-08-16T16:35:56.691Z,100709.13
2022-08-16T16:38:29.891Z,100706.16
2022-08-16T16:40:58.097Z,100709.88
2022-08-16T16:43:32.000Z,100711.25
2022-08-16T16:46:02.182Z,100704.75
2022-08-16T16:48:34.714Z,100705.66
2022-08-16T16:51:09.163Z,100711.34
2022-08-16T16:53:39.418Z,100708.13
2022-08-16T16:56:08.945Z,100712.56
2022-08-16T16:59:01.099Z,100713.97
2022-08-16T17:01:57.698Z,100719.50
2022-08-16T17:04:31.762Z,100721.53
2022-08-16T17:07:02.423Z,100727.25
2022-08-16T17:09:31.105Z,100725.94
2022-08-16T17:11:59.674Z,100740.63
2022-08-16T17:14:33.160Z,100743.63
2022-08-16T17:17:02.531Z,100747.28
2022-08-16T17:19:31.795Z,100750.13
2022-08-16T17:22:00.376Z,100756.19
2022-08-16T17:27:33.232Z,100769.81
2022-08-16T17:30:15.557Z,100771.22
2022-08-16T17:32:50.511Z,100773.78
2022-08-16T17:35:34.233Z,100776.97
2022-08-16T17:38:06.295Z,100780.78
2022-08-16T17:39:26.680Z,100767.66
2022-08-16T17:40:46.883Z,100778.69
2022-08-16T17:43:27.709Z,100788.22
2022-08-16T17:45:58.149Z,100785.03
2022-08-16T17:48:27.200Z,100788.22
2022-08-16T17:50:56.092Z,100790.75
2022-08-16T17:53:24.993Z,100792.84
2022-08-16T17:55:54.705Z,100797.25
2022-08-16T17:58:24.268Z,100798.09
2022-08-16T18:00:54.698Z,100802.31
2022-08-16T18:04:08.958Z,100797.66
2022-08-16T18:06:18.614Z,100791.97
2022-08-16T18:08:48.513Z,100806.72
2022-08-16T18:11:25.807Z,100805.03
2022-08-16T18:13:54.996Z,100803.56
2022-08-16T18:16:23.357Z,100809.47
2022-08-16T18:18:52.668Z,100804.16
2022-08-16T18:21:37.829Z,100809.81
2022-08-16T18:24:06.358Z,100809.38
2022-08-16T18:26:34.510Z,100804.31
2022-08-16T18:29:02.656Z,100809.78
2022-08-16T18:31:30.623Z,100819.91
2022-08-16T18:34:01.336Z,100825.97
2022-08-16T18:36:29.724Z,100831.03
2022-08-16T18:38:57.996Z,100823.03
2022-08-16T18:41:29.019Z,100827.22
2022-08-16T18:44:26.633Z,100825.09
2022-08-16T18:46:50.983Z,100835.16
2022-08-16T18:49:21.117Z,100829.22
2022-08-16T18:51:50.801Z,100824.19
2022-08-16T18:54:19.209Z,100833.22
2022-08-16T18:56:56.850Z,100827.94
2022-08-16T18:59:28.279Z,100835.72
2022-08-16T19:01:59.670Z,100838.41
2022-08-16T19:04:56.291Z,100837.50
2022-08-16T19:07:18.266Z,100841.09
2022-08-16T19:09:46.124Z,100849.72
2022-08-16T19:12:15.939Z,100856.88
2022-08-16T19:14:44.358Z,100862.97
2022-08-16T19:17:12.364Z,100869.44
2022-08-16T19:19:41.721Z,100862.69
2022-08-16T19:22:09.760Z,100870.66
2022-08-16T19:24:37.820Z,100876.94
2022-08-16T19:27:10.237Z,100877.16
2022-08-16T19:29:38.180Z,100881.94
2022-08-16T19:32:16.381Z,100880.84
2022-08-16T19:34:45.878Z,100882.06
2022-08-16T19:37:14.035Z,100875.94
2022-08-16T19:39:42.580Z,100885.22
2022-08-16T19:42:13.337Z,100888.78
2022-08-16T19:44:42.512Z,100883.31
2022-08-16T19:47:11.558Z,100886.66
2022-08-16T19:49:39.803Z,100891.94
2022-08-16T19:52:14.219Z,100893.81
2022-08-16T19:54:42.679Z,100894.63
2022-08-16T19:57:11.487Z,100898.56
2022-08-16T19:59:40.895Z,100895.38
2022-08-16T20:02:25.526Z,100900.75
2022-08-16T20:05:05.654Z,100904.22
2022-08-16T20:07:34.909Z,100901.28
2022-08-16T20:10:02.867Z,100900.66
2022-08-16T20:12:30.948Z,100899.34
2022-08-16T20:14:59.492Z,100907.66
2022-08-16T20:17:27.571Z,100906.34
2022-08-16T20:19:56.002Z,100908.16
2022-08-16T20:22:51.896Z,100906.50
2022-08-16T20:25:20.026Z,100913.94
2022-08-16T20:27:56.504Z,100913.13
2022-08-16T20:30:25.657Z,100915.91
2022-08-16T20:32:54.317Z,100916.03
2022-08-16T20:35:25.329Z,100909.22
2022-08-16T20:37:53.656Z,100916.41
2022-08-16T20:40:35.121Z,100916.22
2022-08-16T20:43:07.528Z,100935.75
2022-08-16T20:45:36.807Z,100935.09
2022-08-16T20:48:05.953Z,100939.22
2022-08-16T20:50:35.120Z,100930.09
2022-08-16T20:53:03.429Z,100937.06
2022-08-16T20:55:35.998Z,100943.78
2022-08-16T20:58:04.407Z,100943.50
2022-08-16T21:00:33.687Z,100939.06
2022-08-16T21:03:03.021Z,100943.78
2022-08-16T21:05:31.789Z,100939.72
2022-08-16T21:07:59.933Z,100948.09
2022-08-16T21:10:28.746Z,100942.84
2022-08-16T21:13:03.049Z,100959.59
2022-08-16T21:15:33.382Z,100964.03
2022-08-16T21:18:03.135Z,100965.63
2022-08-16T21:20:31.790Z,100964.78
2022-08-16T21:23:02.007Z,100971.25
2022-08-16T21:25:30.563Z,100971.63
2022-08-16T21:28:41.465Z,100964.31
2022-08-16T21:30:49.444Z,100968.41
2022-08-16T21:33:19.699Z,100972.19
2022-08-16T21:35:49.365Z,100974.59
2022-08-16T21:38:29.809Z,100971.38
2022-08-16T21:40:58.985Z,100978.09
2022-08-16T21:43:31.960Z,100968.38
2022-08-16T21:46:01.457Z,100972.50
2022-08-16T21:48:33.860Z,100977.31
2022-08-16T21:51:03.943Z,100977.50
2022-08-16T21:53:32.236Z,100986.72
2022-08-16T21:56:01.624Z,100990.66
2022-08-16T21:58:32.362Z,100992.91
2022-08-16T22:01:01.394Z,100994.78
2022-08-16T22:03:30.109Z,100985.47
2022-08-16T22:06:13.560Z,100985.16
2022-08-16T22:08:50.549Z,100993.03
2022-08-16T22:11:20.635Z,100987.94
2022-08-16T22:13:57.189Z,100996.50
2022-08-16T22:16:27.311Z,100993.31
2022-08-16T22:18:55.551Z,100994.88
2022-08-16T22:21:23.583Z,100994.03
2022-08-16T22:23:56.701Z,100986.22
2022-08-16T22:26:30.111Z,100996.28
2022-08-16T22:29:00.880Z,100991.00
2022-08-16T22:31:28.962Z,100996.16
2022-08-16T22:33:58.021Z,100990.38
2022-08-16T22:36:29.410Z,100991.63
2022-08-16T22:38:59.385Z,100996.41
2022-08-16T22:41:31.366Z,100995.25
2022-08-16T22:44:02.120Z,101001.22
2022-08-16T22:46:30.499Z,100991.06
2022-08-16T22:48:58.811Z,100997.16
2022-08-16T22:51:28.344Z,100987.47
2022-08-16T22:53:57.194Z,100996.66
2022-08-16T22:56:26.104Z,100995.66
2022-08-16T22:58:54.829Z,101005.91
2022-08-16T23:01:26.740Z,101006.47
2022-08-16T23:03:55.706Z,100998.78
2022-08-16T23:06:24.852Z,101007.16
2022-08-16T23:08:52.929Z,101007.34
2022-08-16T23:11:23.943Z,101012.28
2022-08-16T23:13:54.474Z,101001.19
2022-08-16T23:16:33.531Z,100997.81
2022-08-16T23:19:03.411Z,101001.44
2022-08-16T23:21:32.153Z,101002.44
2022-08-16T23:24:00.193Z,101005.53
2022-08-16T23:26:44.187Z,100995.31
2022-08-16T23:29:23.501Z,100999.25
2022-08-16T23:31:59.505Z,100986.47
2022-08-16T23:34:29.249Z,100988.84
2022-08-16T23:36:57.177Z,100991.06
2022-08-16T23:39:25.589Z,100988.69
2022-08-16T23:41:53.542Z,100986.50
2022-08-16T23:44:57.684Z,100990.63
2022-08-16T23:47:10.943Z,100992.31
2022-08-16T23:49:55.925Z,100982.59
2022-08-16T23:52:53.443Z,100985.69
2022-08-16T23:55:16.181Z,100991.66
2022-08-16T23:57:45.030Z,100993.03
